createdAt,value
2023-03-22T00:02:47.424Z,0.51
2023-03-22T00:06:47.466Z,0.51
2023-03-22T00:10:47.561Z,0.51
2023-03-22T00:14:47.626Z,0.51
2023-03-22T00:18:47.625Z,0.51
2023-03-22T00:22:47.738Z,0.50
2023-03-22T00:26:47.757Z,0.50
2023-03-22T00:30:47.824Z,0.51
2023-03-22T00:34:47.902Z,0.51
2023-03-22T00:38:47.973Z,0.51
2023-03-22T00:42:48.037Z,0.50
2023-03-22T00:46:48.062Z,0.51
2023-03-22T00:50:48.288Z,0.50
2023-03-22T00:54:48.246Z,0.52
2023-03-22T00:58:48.364Z,0.51
2023-03-22T01:02:48.424Z,0.52
2023-03-22T01:06:48.430Z,0.51
2023-03-22T01:10:48.493Z,0.52
2023-03-22T01:14:48.542Z,0.51
2023-03-22T01:18:48.645Z,0.51
2023-03-22T01:22:48.717Z,0.51
2023-03-22T01:26:48.763Z,0.51
2023-03-22T01:30:48.960Z,0.51
2023-03-22T01:34:48.975Z,0.52
2023-03-22T01:38:49.527Z,0.51
2023-03-22T01:42:49.110Z,0.51
2023-03-22T01:46:49.164Z,0.50
2023-03-22T01:50:49.313Z,0.51
2023-03-22T01:54:49.317Z,0.51
2023-03-22T01:58:49.358Z,0.52
2023-03-22T02:02:49.595Z,0.51
2023-03-22T02:06:49.541Z,0.52
2023-03-22T02:10:50.457Z,0.50
2023-03-22T02:14:49.686Z,0.52
2023-03-22T02:18:49.769Z,0.52
2023-03-22T02:22:49.833Z,0.52
2023-03-22T02:26:49.883Z,0.51
2023-03-22T02:30:49.957Z,0.51
2023-03-22T02:34:49.928Z,0.51
2023-03-22T02:38:49.939Z,0.51
2023-03-22T02:42:50.005Z,0.51
2023-03-22T02:46:50.163Z,0.51
2023-03-22T02:50:50.155Z,0.50
2023-03-22T02:54:50.217Z,0.52
2023-03-22T02:58:50.339Z,0.51
2023-03-22T03:02:50.273Z,0.51
2023-03-22T03:06:50.286Z,0.50
2023-03-22T03:10:50.315Z,0.51
2023-03-22T03:14:50.432Z,0.51
2023-03-22T03:18:50.418Z,0.52
2023-03-22T03:22:50.481Z,0.51
2023-03-22T03:26:50.553Z,0.52
2023-03-22T03:30:50.684Z,0.52
2023-03-22T03:34:50.669Z,0.51
2023-03-22T03:38:50.744Z,0.51
2023-03-22T03:42:50.900Z,0.51
2023-03-22T03:46:50.897Z,0.51
2023-03-22T03:50:50.913Z,0.51
2023-03-22T03:54:50.976Z,0.50
2023-03-22T03:58:51.124Z,0.51
2023-03-22T04:02:51.120Z,0.50
2023-03-22T04:06:51.170Z,0.51
2023-03-22T04:10:51.283Z,0.50
2023-03-22T04:14:51.364Z,0.52
2023-03-22T04:18:52.055Z,0.51
2023-03-22T04:22:51.468Z,0.51
2023-03-22T04:26:51.509Z,0.51
2023-03-22T04:30:51.639Z,0.51
2023-03-22T04:34:51.668Z,0.50
2023-03-22T04:38:51.771Z,0.50
2023-03-22T04:42:51.920Z,0.51
2023-03-22T04:46:51.930Z,0.51
2023-03-22T04:50:51.985Z,0.50
2023-03-22T04:54:51.993Z,0.51
2023-03-22T04:58:52.127Z,0.50
2023-03-22T05:02:52.135Z,0.51
2023-03-22T05:06:52.269Z,0.51
2023-03-22T05:10:52.220Z,0.50
2023-03-22T05:14:52.353Z,0.51
2023-03-22T05:18:52.322Z,0.52
2023-03-22T05:22:52.588Z,0.51
2023-03-22T05:26:52.584Z,0.51
2023-03-22T05:30:53.429Z,0.51
2023-03-22T05:34:52.604Z,0.51
2023-03-22T05:38:52.763Z,0.51
2023-03-22T05:42:52.739Z,0.51
2023-03-22T05:46:52.844Z,0.51
2023-03-22T05:50:52.890Z,0.51
2023-03-22T05:54:53.677Z,0.51
2023-03-22T05:58:53.569Z,0.52
2023-03-22T06:02:53.064Z,0.51
2023-03-22T06:06:53.094Z,0.52
2023-03-22T06:10:53.457Z,0.51
2023-03-22T06:14:53.232Z,0.52
2023-03-22T06:18:53.335Z,0.51
2023-03-22T06:22:53.410Z,0.51
2023-03-22T06:26:54.085Z,0.51
2023-03-22T06:30:53.802Z,0.55
2023-03-22T06:34:53.953Z,0.69
2023-03-22T06:38:54.225Z,0.80
2023-03-22T06:42:54.001Z,1.02
2023-03-22T06:46:54.026Z,1.06
2023-03-22T06:50:55.130Z,0.84
2023-03-22T06:54:56.653Z,0.83
2023-03-22T06:58:54.256Z,0.80
2023-03-22T07:02:55.249Z,0.87
2023-03-22T07:06:54.593Z,1.00
2023-03-22T07:10:54.591Z,0.93
2023-03-22T07:14:54.039Z,0.86
2023-03-22T07:18:54.106Z,0.80
2023-03-22T07:22:53.896Z,0.79
2023-03-22T07:26:53.855Z,0.71
2023-03-22T07:30:54.347Z,0.67
2023-03-22T07:34:54.702Z,0.66
2023-03-22T07:38:54.013Z,0.75
2023-03-22T07:42:55.764Z,0.76
2023-03-22T07:46:53.791Z,0.72
2023-03-22T07:50:53.645Z,0.68
2023-03-22T07:54:53.863Z,0.67
2023-03-22T07:58:53.824Z,0.77
2023-03-22T08:02:53.768Z,0.79
2023-03-22T08:06:54.086Z,0.81
2023-03-22T08:10:53.762Z,0.75
2023-03-22T08:14:54.220Z,0.81
2023-03-22T08:18:57.165Z,0.77
2023-03-22T08:22:53.702Z,0.81
2023-03-22T08:31:16.543Z,0.50
2023-03-22T08:35:14.140Z,0.50
2023-03-22T08:39:12.801Z,0.50
2023-03-22T08:43:12.692Z,0.50
2023-03-22T08:47:12.668Z,0.51
2023-03-22T08:51:12.705Z,0.52
2023-03-22T08:55:12.614Z,0.71
2023-03-22T08:59:13.192Z,0.59
2023-03-22T09:03:12.622Z,0.53
2023-03-22T09:07:12.686Z,0.55
2023-03-22T09:11:13.489Z,0.53
2023-03-22T09:15:12.477Z,0.51
2023-03-22T09:19:12.461Z,0.57
2023-03-22T09:23:12.345Z,0.69
2023-03-22T09:27:12.619Z,0.75
2023-03-22T09:31:13.377Z,0.80
2023-03-22T09:35:14.598Z,0.75
2023-03-22T09:39:12.387Z,0.66
2023-03-22T09:43:18.704Z,0.77
2023-03-22T09:47:12.250Z,1.92
2023-03-22T09:51:12.195Z,1.94
2023-03-22T09:55:13.198Z,1.24
2023-03-22T09:59:12.207Z,1.32
2023-03-22T10:03:13.111Z,1.17
2023-03-22T10:07:12.188Z,1.04
2023-03-22T10:11:12.046Z,1.06
2023-03-22T10:15:12.033Z,0.91
2023-03-22T10:19:11.957Z,0.87
2023-03-22T10:23:11.949Z,0.83
2023-03-22T10:27:13.555Z,0.85
2023-03-22T10:31:11.926Z,0.93
2023-03-22T10:43:50.585Z,0.50
2023-03-22T10:47:51.535Z,0.50
2023-03-22T10:51:50.679Z,0.53
2023-03-22T10:55:50.857Z,0.49
2023-03-22T10:59:51.124Z,0.52
2023-03-22T11:03:50.807Z,0.59
2023-03-22T11:07:50.747Z,0.51
2023-03-22T11:11:50.700Z,0.62
2023-03-22T11:15:52.716Z,0.63
2023-03-22T11:19:51.669Z,0.70
2023-03-22T11:23:50.728Z,0.62
2023-03-22T11:27:50.704Z,1.07
2023-03-22T11:31:54.153Z,1.39
2023-03-22T11:35:52.003Z,1.16
2023-03-22T11:39:50.596Z,1.09
2023-03-22T11:43:52.042Z,0.96
2023-03-22T11:47:50.527Z,1.05
2023-03-22T11:51:50.463Z,1.02
2023-03-22T11:55:50.406Z,1.00
2023-03-22T11:59:51.743Z,1.11
2023-03-22T12:03:52.434Z,1.15
2023-03-22T12:07:50.558Z,1.28
2023-03-22T12:11:50.530Z,1.51
2023-03-22T12:15:50.469Z,1.42
2023-03-22T12:19:56.394Z,2.06
2023-03-22T12:23:50.250Z,1.97
2023-03-22T12:27:51.238Z,2.01
2023-03-22T12:31:52.512Z,2.16
2023-03-22T12:35:50.182Z,2.07
2023-03-22T12:39:50.331Z,1.99
2023-03-22T12:43:50.119Z,2.01
2023-03-22T12:47:50.157Z,2.26
2023-03-22T12:51:50.158Z,1.94
2023-03-22T12:55:49.969Z,1.77
2023-03-22T12:59:51.237Z,1.47
2023-03-22T13:03:50.653Z,1.78
2023-03-22T13:07:49.878Z,1.08
2023-03-22T13:11:50.866Z,1.05
2023-03-22T13:15:49.799Z,0.91
2023-03-22T13:19:49.842Z,0.82
2023-03-22T13:23:51.590Z,0.72
2023-03-22T13:27:50.626Z,0.73
2023-03-22T13:31:50.039Z,0.70
2023-03-22T13:35:50.408Z,0.81
2023-03-22T13:39:49.971Z,0.64
2023-03-22T13:43:50.152Z,0.60
2023-03-22T13:47:50.422Z,0.51
2023-03-22T13:51:50.593Z,0.52
2023-03-22T13:55:51.714Z,0.72
2023-03-22T13:59:56.979Z,1.34
2023-03-22T14:03:51.894Z,1.27
2023-03-22T14:07:50.995Z,1.46
2023-03-22T14:11:51.043Z,1.39
2023-03-22T14:15:51.351Z,1.48
2023-03-22T14:19:52.197Z,1.64
2023-03-22T14:48:55.435Z,0.50
2023-03-22T14:52:55.057Z,0.56
2023-03-22T14:56:53.789Z,0.56
2023-03-22T15:00:53.768Z,0.55
2023-03-22T15:04:56.062Z,0.50
2023-03-22T15:08:53.926Z,0.50
2023-03-22T15:12:53.913Z,0.51
2023-03-22T15:16:53.843Z,0.51
2023-03-22T15:20:53.919Z,0.53
2023-03-22T15:24:53.898Z,0.52
2023-03-22T15:29:00.522Z,0.52
2023-03-22T15:32:53.668Z,0.57
2023-03-22T15:36:58.029Z,0.78
2023-03-22T15:40:53.681Z,0.81
2023-03-22T15:44:53.716Z,0.88
2023-03-22T15:48:54.567Z,0.74
2023-03-22T15:52:53.540Z,0.69
2023-03-22T15:56:53.795Z,0.66
2023-03-22T16:00:53.937Z,0.55
2023-03-22T16:04:54.091Z,0.54
2023-03-22T16:08:54.260Z,0.59
2023-03-22T16:12:54.401Z,0.58
2023-03-22T16:16:54.552Z,0.51
2023-03-22T16:20:54.660Z,0.50
2023-03-22T16:24:54.852Z,0.51
2023-03-22T16:28:54.810Z,0.51
2023-03-22T16:32:54.781Z,0.55
2023-03-22T16:36:54.731Z,0.54
2023-03-22T16:40:54.734Z,0.53
2023-03-22T16:44:56.288Z,0.54
2023-03-22T16:48:54.603Z,0.54
2023-03-22T16:52:54.632Z,0.55
2023-03-22T16:56:54.713Z,0.59
2023-03-22T17:00:54.678Z,0.57
2023-03-22T17:04:54.665Z,0.59
2023-03-22T17:08:54.623Z,0.56
2023-03-22T17:12:54.615Z,0.55
2023-03-22T17:16:54.539Z,0.54
2023-03-22T17:20:54.464Z,0.54
2023-03-22T17:24:54.533Z,0.54
2023-03-22T17:28:54.407Z,0.53
2023-03-22T17:33:01.584Z,0.54
2023-03-22T17:36:55.356Z,0.55
2023-03-22T17:44:56.703Z,0.53
2023-03-22T17:48:54.355Z,0.51
2023-03-22T17:52:55.077Z,0.51
2023-03-22T17:57:22.787Z,0.50
2023-03-22T18:00:55.250Z,0.51
2023-03-22T18:04:54.212Z,0.52
2023-03-22T18:08:54.219Z,0.51
2023-03-22T18:12:54.119Z,0.50
2023-03-22T18:16:54.182Z,0.51
2023-03-22T18:20:57.632Z,0.51
2023-03-22T18:24:54.104Z,0.51
2023-03-22T18:28:54.065Z,0.52
2023-03-22T18:33:05.760Z,0.52
2023-03-22T18:36:54.970Z,0.50
2023-03-22T18:41:21.960Z,0.52
2023-03-22T18:44:54.895Z,0.50
2023-03-22T18:48:53.820Z,0.51
2023-03-22T18:56:53.851Z,0.52
2023-03-22T19:00:53.919Z,0.52
2023-03-22T19:04:53.760Z,0.51
2023-03-22T19:08:53.840Z,0.51
2023-03-22T19:12:53.681Z,0.51
2023-03-22T19:16:53.707Z,0.50
2023-03-22T19:21:06.557Z,0.53
2023-03-22T19:24:54.556Z,0.51
2023-03-22T19:28:53.727Z,0.51
2023-03-22T19:33:20.226Z,0.53
2023-03-22T19:36:54.504Z,0.54
2023-03-22T19:41:33.684Z,0.54
2023-03-22T19:44:55.192Z,0.55
2023-03-22T19:48:53.390Z,0.55
2023-03-22T19:52:57.879Z,0.58
2023-03-22T19:56:54.259Z,0.59
2023-03-22T20:00:53.207Z,0.61
2023-03-22T20:04:53.280Z,0.61
2023-03-22T20:08:53.149Z,0.62
2023-03-22T20:12:53.148Z,0.63
2023-03-22T20:17:04.502Z,0.61
2023-03-22T20:20:54.050Z,0.62
2023-03-22T20:24:53.054Z,0.63
2023-03-22T20:28:53.016Z,0.62
2023-03-22T20:32:52.945Z,0.63
2023-03-22T20:36:53.091Z,0.63
2023-03-22T20:40:53.057Z,0.63
2023-03-22T20:44:53.161Z,0.64
2023-03-22T20:48:53.130Z,0.63
2023-03-22T20:52:53.257Z,0.62
2023-03-22T20:56:53.268Z,0.62
2023-03-22T21:00:53.422Z,0.62
2023-03-22T21:04:53.488Z,0.63
2023-03-22T21:08:53.580Z,0.62
2023-03-22T21:12:53.732Z,0.63
2023-03-22T21:16:53.914Z,0.62
2023-03-22T21:20:54.044Z,0.62
2023-03-22T21:24:54.096Z,0.61
2023-03-22T21:28:55.196Z,0.60
2023-03-22T21:32:54.343Z,0.60
2023-03-22T21:36:54.423Z,0.59
2023-03-22T21:40:54.495Z,0.60
2023-03-22T21:44:54.575Z,0.59
2023-03-22T21:48:54.608Z,0.59
2023-03-22T21:52:54.617Z,0.58
2023-03-22T21:56:54.693Z,0.59
2023-03-22T22:00:54.841Z,0.57
2023-03-22T22:04:54.758Z,0.58
2023-03-22T22:08:54.882Z,0.58
2023-03-22T22:12:54.887Z,0.57
2023-03-22T22:16:54.920Z,0.57
2023-03-22T22:20:55.035Z,0.56
2023-03-22T22:24:55.070Z,0.56
2023-03-22T22:28:54.980Z,0.56
2023-03-22T22:32:55.330Z,0.55
2023-03-22T22:36:55.193Z,0.55
2023-03-22T22:40:55.292Z,0.54
2023-03-22T22:44:55.107Z,0.54
2023-03-22T22:48:55.068Z,0.54
2023-03-22T22:52:55.090Z,0.53
2023-03-22T22:56:55.089Z,0.53
2023-03-22T23:00:55.156Z,0.53
2023-03-22T23:04:55.070Z,0.52
2023-03-22T23:08:55.082Z,0.53
2023-03-22T23:12:55.156Z,0.52
2023-03-22T23:16:55.206Z,0.52
2023-03-22T23:20:55.120Z,0.51
2023-03-22T23:24:55.238Z,0.51
2023-03-22T23:28:55.099Z,0.51
2023-03-22T23:32:55.178Z,0.50
2023-03-22T23:36:55.152Z,0.51
2023-03-22T23:40:55.211Z,0.51
2023-03-22T23:44:55.136Z,0.51
2023-03-22T23:48:55.136Z,0.51
2023-03-22T23:52:55.193Z,0.51
2023-03-22T23:56:55.100Z,0.50
